sensor_id;sensor_type;location;lat;lon;timestamp;pressure;altitude;pressure_sealevel;temperature;humidity
6829;BME280;17930;48.592;8.868;2022-12-24T00:00:56;96274.41;;;8.76;100.00
6829;BME280;17930;48.592;8.868;2022-12-24T00:03:23;96279.16;;;8.64;100.00
6829;BME280;17930;48.592;8.868;2022-12-24T00:05:50;96273.97;;;8.64;100.00
6829;BME280;17930;48.592;8.868;2022-12-24T00:08:17;96271.75;;;8.81;100.00
6829;BME280;17930;48.592;8.868;2022-12-24T00:10:43;96267.66;;;8.70;100.00
6829;BME280;17930;48.592;8.868;2022-12-24T00:13:10;96281.69;;;8.74;100.00
6829;BME280;17930;48.592;8.868;2022-12-24T00:15:37;96266.16;;;8.64;100.00
6829;BME280;17930;48.592;8.868;2022-12-24T00:18:04;96275.63;;;8.50;100.00
6829;BME280;17930;48.592;8.868;2022-12-24T00:20:31;96280.94;;;8.30;100.00
6829;BME280;17930;48.592;8.868;2022-12-24T00:22:58;96292.47;;;8.10;100.00
6829;BME280;17930;48.592;8.868;2022-12-24T00:25:24;96283.91;;;7.99;100.00
6829;BME280;17930;48.592;8.868;2022-12-24T00:27:51;96294.31;;;7.99;100.00
6829;BME280;17930;48.592;8.868;2022-12-24T00:30:18;96285.78;;;7.84;100.00
6829;BME280;17930;48.592;8.868;2022-12-24T00:32:44;96282.19;;;7.75;100.00
6829;BME280;17930;48.592;8.868;2022-12-24T00:35:12;96289.09;;;8.04;100.00
6829;BME280;17930;48.592;8.868;2022-12-24T00:37:39;96288.16;;;7.85;100.00
6829;BME280;17930;48.592;8.868;2022-12-24T00:40:07;96290.94;;;7.94;100.00
6829;BME280;17930;48.592;8.868;2022-12-24T00:42:33;96295.97;;;7.70;100.00
6829;BME280;17930;48.592;8.868;2022-12-24T00:45:00;96307.97;;;7.52;100.00
6829;BME280;17930;48.592;8.868;2022-12-24T00:47:27;96302.28;;;7.45;100.00
6829;BME280;17930;48.592;8.868;2022-12-24T00:49:53;96302.44;;;7.78;100.00
6829;BME280;17930;48.592;8.868;2022-12-24T00:52:21;96300.91;;;7.77;100.00
6829;BME280;17930;48.592;8.868;2022-12-24T00:54:48;96313.38;;;7.70;100.00
6829;BME280;17930;48.592;8.868;2022-12-24T00:57:14;96313.91;;;7.67;100.00
6829;BME280;17930;48.592;8.868;2022-12-24T00:59:41;96317.53;;;7.61;100.00
6829;BME280;17930;48.592;8.868;2022-12-24T01:02:08;96316.53;;;7.47;100.00
6829;BME280;17930;48.592;8.868;2022-12-24T01:04:34;96310.81;;;7.60;100.00
6829;BME280;17930;48.592;8.868;2022-12-24T01:07:18;96329.25;;;7.49;100.00
6829;BME280;17930;48.592;8.868;2022-12-24T01:09:46;96339.38;;;7.50;100.00
6829;BME280;17930;48.592;8.868;2022-12-24T01:12:13;96338.84;;;7.48;100.00
6829;BME280;17930;48.592;8.868;2022-12-24T01:14:41;96336.75;;;7.60;100.00
6829;BME280;17930;48.592;8.868;2022-12-24T01:17:07;96346.09;;;7.56;100.00
6829;BME280;17930;48.592;8.868;2022-12-24T01:19:34;96348.97;;;7.40;100.00
6829;BME280;17930;48.592;8.868;2022-12-24T01:22:00;96346.34;;;7.55;100.00
6829;BME280;17930;48.592;8.868;2022-12-24T01:24:27;96353.09;;;7.61;100.00
6829;BME280;17930;48.592;8.868;2022-12-24T01:26:55;96349.19;;;7.68;100.00
6829;BME280;17930;48.592;8.868;2022-12-24T01:29:22;96350.50;;;7.65;100.00
6829;BME280;17930;48.592;8.868;2022-12-24T01:31:48;96363.72;;;7.54;100.00
6829;BME280;17930;48.592;8.868;2022-12-24T01:34:15;96370.22;;;7.62;100.00
6829;BME280;17930;48.592;8.868;2022-12-24T01:36:42;96371.78;;;7.58;100.00
6829;BME280;17930;48.592;8.868;2022-12-24T01:39:08;96371.53;;;7.49;100.00
6829;BME280;17930;48.592;8.868;2022-12-24T01:41:35;96373.09;;;7.40;100.00
6829;BME280;17930;48.592;8.868;2022-12-24T01:44:26;96392.00;;;7.26;100.00
6829;BME280;17930;48.592;8.868;2022-12-24T01:46:56;96387.88;;;7.20;100.00
6829;BME280;17930;48.592;8.868;2022-12-24T01:49:26;96395.38;;;7.12;100.00
6829;BME280;17930;48.592;8.868;2022-12-24T01:51:56;96388.66;;;7.40;100.00
6829;BME280;17930;48.592;8.868;2022-12-24T01:54:27;96393.59;;;7.42;100.00
6829;BME280;17930;48.592;8.868;2022-12-24T01:57:01;96393.84;;;7.20;100.00
6829;BME280;17930;48.592;8.868;2022-12-24T01:59:31;96399.03;;;7.25;100.00
6829;BME280;17930;48.592;8.868;2022-12-24T02:02:00;96408.88;;;7.09;100.00
6829;BME280;17930;48.592;8.868;2022-12-24T02:04:33;96411.44;;;6.99;100.00
6829;BME280;17930;48.592;8.868;2022-12-24T02:07:02;96416.59;;;6.79;100.00
6829;BME280;17930;48.592;8.868;2022-12-24T02:09:29;96423.81;;;6.67;100.00
6829;BME280;17930;48.592;8.868;2022-12-24T02:11:57;96416.28;;;6.61;100.00
6829;BME280;17930;48.592;8.868;2022-12-24T02:14:25;96430.00;;;6.56;100.00
6829;BME280;17930;48.592;8.868;2022-12-24T02:17:00;96423.78;;;6.57;100.00
6829;BME280;17930;48.592;8.868;2022-12-24T02:19:57;96430.31;;;6.74;100.00
6829;BME280;17930;48.592;8.868;2022-12-24T02:22:37;96439.84;;;6.54;100.00
6829;BME280;17930;48.592;8.868;2022-12-24T02:25:24;96444.50;;;6.57;100.00
6829;BME280;17930;48.592;8.868;2022-12-24T02:27:58;96453.31;;;6.56;100.00
6829;BME280;17930;48.592;8.868;2022-12-24T02:30:31;96449.47;;;6.73;100.00
6829;BME280;17930;48.592;8.868;2022-12-24T02:33:05;96456.44;;;6.63;100.00
6829;BME280;17930;48.592;8.868;2022-12-24T02:35:41;96445.06;;;6.64;100.00
6829;BME280;17930;48.592;8.868;2022-12-24T02:38:13;96447.13;;;6.67;100.00
6829;BME280;17930;48.592;8.868;2022-12-24T02:40:45;96448.72;;;6.73;100.00
6829;BME280;17930;48.592;8.868;2022-12-24T02:43:18;96455.47;;;6.74;100.00
6829;BME280;17930;48.592;8.868;2022-12-24T02:45:51;96464.50;;;6.76;100.00
6829;BME280;17930;48.592;8.868;2022-12-24T02:48:20;96463.75;;;6.71;100.00
6829;BME280;17930;48.592;8.868;2022-12-24T02:50:55;96457.25;;;6.73;100.00
6829;BME280;17930;48.592;8.868;2022-12-24T02:53:22;96462.72;;;6.82;100.00
6829;BME280;17930;48.592;8.868;2022-12-24T02:56:18;96451.59;;;6.81;100.00
6829;BME280;17930;48.592;8.868;2022-12-24T02:59:01;96453.41;;;6.86;100.00
6829;BME280;17930;48.592;8.868;2022-12-24T03:01:42;96464.56;;;6.91;100.00
6829;BME280;17930;48.592;8.868;2022-12-24T03:04:21;96465.88;;;6.94;100.00
6829;BME280;17930;48.592;8.868;2022-12-24T03:07:06;96471.66;;;7.20;100.00
6829;BME280;17930;48.592;8.868;2022-12-24T03:09:37;96465.94;;;7.13;100.00
6829;BME280;17930;48.592;8.868;2022-12-24T03:12:11;96468.00;;;7.16;100.00
6829;BME280;17930;48.592;8.868;2022-12-24T03:14:40;96468.25;;;7.10;100.00
6829;BME280;17930;48.592;8.868;2022-12-24T03:17:09;96466.91;;;6.98;100.00
6829;BME280;17930;48.592;8.868;2022-12-24T03:19:36;96468.97;;;6.86;100.00
6829;BME280;17930;48.592;8.868;2022-12-24T03:22:06;96477.72;;;6.75;100.00
6829;BME280;17930;48.592;8.868;2022-12-24T03:24:35;96486.22;;;6.61;100.00
6829;BME280;17930;48.592;8.868;2022-12-24T03:27:03;96504.88;;;6.58;100.00
6829;BME280;17930;48.592;8.868;2022-12-24T03:29:30;96512.38;;;6.54;100.00
6829;BME280;17930;48.592;8.868;2022-12-24T03:31:59;96498.16;;;6.62;100.00
6829;BME280;17930;48.592;8.868;2022-12-24T03:34:27;96495.59;;;6.76;100.00
6829;BME280;17930;48.592;8.868;2022-12-24T03:36:55;96493.09;;;6.91;100.00
6829;BME280;17930;48.592;8.868;2022-12-24T03:39:22;96499.31;;;7.00;100.00
6829;BME280;17930;48.592;8.868;2022-12-24T03:41:49;96505.84;;;7.13;100.00
6829;BME280;17930;48.592;8.868;2022-12-24T03:44:16;96512.63;;;7.23;100.00
6829;BME280;17930;48.592;8.868;2022-12-24T03:46:42;96511.56;;;7.19;100.00
6829;BME280;17930;48.592;8.868;2022-12-24T03:49:09;96511.81;;;7.23;100.00
6829;BME280;17930;48.592;8.868;2022-12-24T03:51:37;96519.63;;;7.28;100.00
6829;BME280;17930;48.592;8.868;2022-12-24T03:54:04;96522.47;;;7.26;100.00
6829;BME280;17930;48.592;8.868;2022-12-24T03:56:30;96523.78;;;7.29;100.00
6829;BME280;17930;48.592;8.868;2022-12-24T03:58:57;96526.63;;;7.22;100.00
6829;BME280;17930;48.592;8.868;2022-12-24T04:01:23;96521.97;;;7.29;100.00
6829;BME280;17930;48.592;8.868;2022-12-24T04:03:50;96516.28;;;7.27;100.00
6829;BME280;17930;48.592;8.868;2022-12-24T04:06:16;96518.06;;;7.27;100.00
6829;BME280;17930;48.592;8.868;2022-12-24T04:08:44;96517.00;;;7.23;100.00
6829;BME280;17930;48.592;8.868;2022-12-24T04:11:13;96516.75;;;7.19;100.00
6829;BME280;17930;48.592;8.868;2022-12-24T04:13:40;96513.91;;;7.26;100.00
6829;BME280;17930;48.592;8.868;2022-12-24T04:16:08;96512.59;;;7.18;100.00
6829;BME280;17930;48.592;8.868;2022-12-24T04:18:36;96527.13;;;7.19;100.00
6829;BME280;17930;48.592;8.868;2022-12-24T04:21:03;96532.81;;;7.21;100.00
6829;BME280;17930;48.592;8.868;2022-12-24T04:23:31;96548.94;;;7.23;100.00
6829;BME280;17930;48.592;8.868;2022-12-24T04:25:59;96533.88;;;7.25;100.00
6829;BME280;17930;48.592;8.868;2022-12-24T04:28:27;96535.47;;;7.41;100.00
6829;BME280;17930;48.592;8.868;2022-12-24T04:30:57;96522.75;;;7.40;100.00
6829;BME280;17930;48.592;8.868;2022-12-24T04:33:23;96525.06;;;7.31;100.00
6829;BME280;17930;48.592;8.868;2022-12-24T04:35:50;96525.03;;;7.21;100.00
6829;BME280;17930;48.592;8.868;2022-12-24T04:38:17;96535.41;;;7.21;100.00
6829;BME280;17930;48.592;8.868;2022-12-24T04:40:43;96533.09;;;7.30;100.00
6829;BME280;17930;48.592;8.868;2022-12-24T04:43:11;96544.78;;;7.27;100.00
6829;BME280;17930;48.592;8.868;2022-12-24T04:45:38;96552.56;;;7.22;100.00
6829;BME280;17930;48.592;8.868;2022-12-24T04:48:04;96534.88;;;7.14;100.00
6829;BME280;17930;48.592;8.868;2022-12-24T04:50:31;96545.25;;;7.10;100.00
6829;BME280;17930;48.592;8.868;2022-12-24T04:52:58;96548.91;;;7.13;100.00
6829;BME280;17930;48.592;8.868;2022-12-24T04:55:24;96561.38;;;7.31;100.00
6829;BME280;17930;48.592;8.868;2022-12-24T04:57:51;96569.22;;;7.46;100.00
6829;BME280;17930;48.592;8.868;2022-12-24T05:00:19;96567.16;;;7.58;100.00
6829;BME280;17930;48.592;8.868;2022-12-24T05:02:46;96558.59;;;7.72;100.00
6829;BME280;17930;48.592;8.868;2022-12-24T05:05:13;96566.41;;;7.77;100.00
6829;BME280;17930;48.592;8.868;2022-12-24T05:07:39;96566.16;;;7.69;100.00
6829;BME280;17930;48.592;8.868;2022-12-24T05:10:07;96564.59;;;7.63;100.00
6829;BME280;17930;48.592;8.868;2022-12-24T05:12:36;96561.19;;;7.53;100.00
6829;BME280;17930;48.592;8.868;2022-12-24T05:15:03;96563.56;;;7.79;100.00
6829;BME280;17930;48.592;8.868;2022-12-24T05:17:31;96563.03;;;7.72;100.00
6829;BME280;17930;48.592;8.868;2022-12-24T05:19:57;96567.19;;;7.73;100.00
6829;BME280;17930;48.592;8.868;2022-12-24T05:22:24;96569.53;;;7.84;100.00
6829;BME280;17930;48.592;8.868;2022-12-24T05:25:09;96563.56;;;7.69;100.00
6829;BME280;17930;48.592;8.868;2022-12-24T05:27:53;96565.63;;;7.57;100.00
6829;BME280;17930;48.592;8.868;2022-12-24T05:30:19;96562.75;;;7.49;100.00
6829;BME280;17930;48.592;8.868;2022-12-24T05:32:47;96564.53;;;7.43;100.00
6829;BME280;17930;48.592;8.868;2022-12-24T05:35:14;96558.81;;;7.36;100.00
6829;BME280;17930;48.592;8.868;2022-12-24T05:37:41;96554.16;;;7.33;100.00
6829;BME280;17930;48.592;8.868;2022-12-24T05:40:08;96556.16;;;7.21;100.00
6829;BME280;17930;48.592;8.868;2022-12-24T05:42:35;96560.88;;;7.29;100.00
6829;BME280;17930;48.592;8.868;2022-12-24T05:45:02;96548.41;;;7.31;100.00
6829;BME280;17930;48.592;8.868;2022-12-24T05:47:29;96553.59;;;7.31;100.00
6829;BME280;17930;48.592;8.868;2022-12-24T05:49:57;96553.88;;;7.40;100.00
6829;BME280;17930;48.592;8.868;2022-12-24T05:52:23;96565.44;;;7.08;100.00
6829;BME280;17930;48.592;8.868;2022-12-24T05:54:50;96548.28;;;6.87;100.00
6829;BME280;17930;48.592;8.868;2022-12-24T05:57:17;96560.69;;;6.85;100.00
6829;BME280;17930;48.592;8.868;2022-12-24T05:59:43;96564.13;;;6.95;100.00
6829;BME280;17930;48.592;8.868;2022-12-24T06:02:10;96563.81;;;6.87;100.00
6829;BME280;17930;48.592;8.868;2022-12-24T06:04:37;96562.25;;;6.81;100.00
6829;BME280;17930;48.592;8.868;2022-12-24T06:07:04;96570.41;;;6.58;100.00
6829;BME280;17930;48.592;8.868;2022-12-24T06:09:31;96570.41;;;6.58;100.00
6829;BME280;17930;48.592;8.868;2022-12-24T06:11:58;96574.47;;;6.44;100.00
6829;BME280;17930;48.592;8.868;2022-12-24T06:14:24;96569.38;;;6.54;100.00
6829;BME280;17930;48.592;8.868;2022-12-24T06:16:51;96566.66;;;6.39;100.00
6829;BME280;17930;48.592;8.868;2022-12-24T06:19:18;96550.06;;;6.35;100.00
6829;BME280;17930;48.592;8.868;2022-12-24T06:21:44;96551.66;;;6.41;100.00
6829;BME280;17930;48.592;8.868;2022-12-24T06:24:12;96550.31;;;6.34;100.00
6829;BME280;17930;48.592;8.868;2022-12-24T06:26:39;96556.75;;;6.31;100.00
6829;BME280;17930;48.592;8.868;2022-12-24T06:29:06;96561.47;;;6.39;100.00
6829;BME280;17930;48.592;8.868;2022-12-24T06:31:33;96568.16;;;6.76;100.00
6829;BME280;17930;48.592;8.868;2022-12-24T06:33:59;96569.47;;;6.74;100.00
6829;BME280;17930;48.592;8.868;2022-12-24T06:36:26;96580.22;;;6.51;100.00
6829;BME280;17930;48.592;8.868;2022-12-24T06:38:53;96597.66;;;6.24;100.00
6829;BME280;17930;48.592;8.868;2022-12-24T06:41:22;96586.66;;;6.12;100.00
6829;BME280;17930;48.592;8.868;2022-12-24T06:43:50;96586.97;;;6.16;100.00
6829;BME280;17930;48.592;8.868;2022-12-24T06:46:17;96584.66;;;6.19;100.00
6829;BME280;17930;48.592;8.868;2022-12-24T06:48:44;96605.59;;;6.13;100.00
6829;BME280;17930;48.592;8.868;2022-12-24T06:51:12;96601.22;;;6.18;100.00
6829;BME280;17930;48.592;8.868;2022-12-24T06:53:39;96604.41;;;6.30;100.00
6829;BME280;17930;48.592;8.868;2022-12-24T06:56:07;96599.81;;;6.37;100.00
6829;BME280;17930;48.592;8.868;2022-12-24T06:58:36;96612.25;;;6.40;100.00
6829;BME280;17930;48.592;8.868;2022-12-24T07:01:03;96615.91;;;6.44;100.00
6829;BME280;17930;48.592;8.868;2022-12-24T07:03:31;96618.56;;;6.54;100.00
6829;BME280;17930;48.592;8.868;2022-12-24T07:05:58;96615.41;;;6.47;100.00
6829;BME280;17930;48.592;8.868;2022-12-24T07:08:25;96621.63;;;6.46;100.00
6829;BME280;17930;48.592;8.868;2022-12-24T07:10:52;96628.38;;;6.52;100.00
6829;BME280;17930;48.592;8.868;2022-12-24T07:13:19;96625.69;;;6.73;100.00
6829;BME280;17930;48.592;8.868;2022-12-24T07:15:55;96633.50;;;6.83;100.00
6829;BME280;17930;48.592;8.868;2022-12-24T07:18:22;96641.91;;;6.54;100.00
6829;BME280;17930;48.592;8.868;2022-12-24T07:20:49;96648.03;;;6.43;100.00
6829;BME280;17930;48.592;8.868;2022-12-24T07:23:15;96650.69;;;6.53;100.00
6829;BME280;17930;48.592;8.868;2022-12-24T07:25:42;96654.69;;;6.34;100.00
6829;BME280;17930;48.592;8.868;2022-12-24T07:28:09;96654.53;;;6.46;100.00
6829;BME280;17930;48.592;8.868;2022-12-24T07:30:35;96664.31;;;6.39;100.00
6829;BME280;17930;48.592;8.868;2022-12-24T07:33:03;96665.75;;;6.30;100.00
6829;BME280;17930;48.592;8.868;2022-12-24T07:35:30;96661.81;;;6.22;100.00
6829;BME280;17930;48.592;8.868;2022-12-24T07:37:56;96667.41;;;6.10;100.00
6829;BME280;17930;48.592;8.868;2022-12-24T07:40:23;96666.47;;;5.94;100.00
6829;BME280;17930;48.592;8.868;2022-12-24T07:42:50;96680.59;;;5.82;100.00
6829;BME280;17930;48.592;8.868;2022-12-24T07:45:16;96674.25;;;5.73;100.00
6829;BME280;17930;48.592;8.868;2022-12-24T07:47:43;96674.47;;;5.66;100.00
6829;BME280;17930;48.592;8.868;2022-12-24T07:50:11;96690.69;;;5.62;100.00
6829;BME280;17930;48.592;8.868;2022-12-24T07:52:38;96693.88;;;5.69;100.00
6829;BME280;17930;48.592;8.868;2022-12-24T07:55:05;96703.69;;;5.67;100.00
6829;BME280;17930;48.592;8.868;2022-12-24T07:57:32;96695.31;;;5.60;100.00
6829;BME280;17930;48.592;8.868;2022-12-24T07:59:59;96697.88;;;5.55;100.00
6829;BME280;17930;48.592;8.868;2022-12-24T08:02:25;96704.09;;;5.59;100.00
6829;BME280;17930;48.592;8.868;2022-12-24T08:04:52;96699.66;;;5.76;100.00
6829;BME280;17930;48.592;8.868;2022-12-24T08:07:20;96708.59;;;5.85;100.00
6829;BME280;17930;48.592;8.868;2022-12-24T08:09:47;96703.63;;;6.05;100.00
6829;BME280;17930;48.592;8.868;2022-12-24T08:12:13;96706.63;;;6.23;100.00
6829;BME280;17930;48.592;8.868;2022-12-24T08:14:40;96714.44;;;6.28;100.00
6829;BME280;17930;48.592;8.868;2022-12-24T08:17:06;96713.94;;;6.62;100.00
6829;BME280;17930;48.592;8.868;2022-12-24T08:19:33;96716.38;;;6.73;100.00
6829;BME280;17930;48.592;8.868;2022-12-24T08:22:00;96720.25;;;6.71;100.00
6829;BME280;17930;48.592;8.868;2022-12-24T08:24:28;96724.44;;;6.77;100.00
6829;BME280;17930;48.592;8.868;2022-12-24T08:26:54;96716.78;;;6.92;100.00
6829;BME280;17930;48.592;8.868;2022-12-24T08:29:21;96715.31;;;7.06;100.00
6829;BME280;17930;48.592;8.868;2022-12-24T08:31:47;96719.53;;;7.16;100.00
6829;BME280;17930;48.592;8.868;2022-12-24T08:34:14;96714.72;;;7.35;100.00
6829;BME280;17930;48.592;8.868;2022-12-24T08:36:41;96714.19;;;7.38;100.00
6829;BME280;17930;48.592;8.868;2022-12-24T08:39:08;96713.97;;;7.44;100.00
6829;BME280;17930;48.592;8.868;2022-12-24T08:41:36;96720.75;;;7.50;100.00
6829;BME280;17930;48.592;8.868;2022-12-24T08:44:03;96725.69;;;7.52;100.00
6829;BME280;17930;48.592;8.868;2022-12-24T08:46:30;96715.09;;;7.68;100.00
6829;BME280;17930;48.592;8.868;2022-12-24T08:48:56;96723.19;;;7.76;100.00
6829;BME280;17930;48.592;8.868;2022-12-24T08:51:23;96715.44;;;7.81;100.00
6829;BME280;17930;48.592;8.868;2022-12-24T08:53:50;96726.09;;;7.90;100.00
6829;BME280;17930;48.592;8.868;2022-12-24T08:56:16;96727.19;;;8.09;100.00
6829;BME280;17930;48.592;8.868;2022-12-24T08:58:44;96730.66;;;8.39;100.00
6829;BME280;17930;48.592;8.868;2022-12-24T09:01:14;96720.03;;;8.95;100.00
6829;BME280;17930;48.592;8.868;2022-12-24T09:03:41;96717.63;;;9.28;100.00
6829;BME280;17930;48.592;8.868;2022-12-24T09:06:08;96717.03;;;9.61;100.00
6829;BME280;17930;48.592;8.868;2022-12-24T09:08:36;96718.22;;;9.88;100.00
6829;BME280;17930;48.592;8.868;2022-12-24T09:11:04;96715.00;;;10.11;100.00
6829;BME280;17930;48.592;8.868;2022-12-24T09:13:31;96709.59;;;9.97;100.00
6829;BME280;17930;48.592;8.868;2022-12-24T09:15:59;96718.78;;;9.70;100.00
6829;BME280;17930;48.592;8.868;2022-12-24T09:18:26;96727.63;;;9.74;100.00
6829;BME280;17930;48.592;8.868;2022-12-24T09:20:57;96729.25;;;9.65;100.00
6829;BME280;17930;48.592;8.868;2022-12-24T09:23:24;96731.84;;;9.65;100.00
6829;BME280;17930;48.592;8.868;2022-12-24T09:25:51;96742.25;;;9.65;100.00
6829;BME280;17930;48.592;8.868;2022-12-24T09:28:18;96738.28;;;9.82;100.00
6829;BME280;17930;48.592;8.868;2022-12-24T09:30:54;96739.81;;;9.93;100.00
6829;BME280;17930;48.592;8.868;2022-12-24T09:33:22;96751.28;;;9.97;100.00
6829;BME280;17930;48.592;8.868;2022-12-24T09:35:49;96753.63;;;9.89;100.00
6829;BME280;17930;48.592;8.868;2022-12-24T09:38:19;96760.38;;;9.90;100.00
6829;BME280;17930;48.592;8.868;2022-12-24T09:40:46;96758.84;;;9.89;100.00
6829;BME280;17930;48.592;8.868;2022-12-24T09:43:15;96765.06;;;10.03;100.00
6829;BME280;17930;48.592;8.868;2022-12-24T09:45:47;96761.84;;;10.21;100.00
6829;BME280;17930;48.592;8.868;2022-12-24T09:48:17;96758.69;;;10.28;100.00
6829;BME280;17930;48.592;8.868;2022-12-24T09:50:50;96764.19;;;10.22;100.00
6829;BME280;17930;48.592;8.868;2022-12-24T09:53:22;96759.84;;;10.08;100.00
6829;BME280;17930;48.592;8.868;2022-12-24T09:55:55;96767.38;;;10.14;100.00
6829;BME280;17930;48.592;8.868;2022-12-24T09:58:28;96758.75;;;10.19;100.00
6829;BME280;17930;48.592;8.868;2022-12-24T10:00:56;96763.03;;;9.95;100.00
6829;BME280;17930;48.592;8.868;2022-12-24T10:03:23;96760.88;;;10.07;100.00
6829;BME280;17930;48.592;8.868;2022-12-24T10:05:59;96764.91;;;10.32;100.00
6829;BME280;17930;48.592;8.868;2022-12-24T10:08:35;96767.53;;;10.71;100.00
6829;BME280;17930;48.592;8.868;2022-12-24T10:11:09;96768.88;;;11.01;100.00
6829;BME280;17930;48.592;8.868;2022-12-24T10:13:50;96773.06;;;11.30;100.00
6829;BME280;17930;48.592;8.868;2022-12-24T10:16:26;96772.81;;;11.60;100.00
6829;BME280;17930;48.592;8.868;2022-12-24T10:18:59;96768.91;;;11.58;100.00
6829;BME280;17930;48.592;8.868;2022-12-24T10:21:38;96771.97;;;11.65;100.00
6829;BME280;17930;48.592;8.868;2022-12-24T10:24:11;96781.19;;;11.57;100.00
6829;BME280;17930;48.592;8.868;2022-12-24T10:26:43;96780.66;;;11.60;100.00
6829;BME280;17930;48.592;8.868;2022-12-24T10:29:14;96793.44;;;11.62;100.00
6829;BME280;17930;48.592;8.868;2022-12-24T10:31:49;96796.81;;;11.62;100.00
6829;BME280;17930;48.592;8.868;2022-12-24T10:34:19;96797.38;;;11.59;100.00
6829;BME280;17930;48.592;8.868;2022-12-24T10:36:49;96800.88;;;11.73;100.00
6829;BME280;17930;48.592;8.868;2022-12-24T10:39:18;96790.72;;;11.43;100.00
6829;BME280;17930;48.592;8.868;2022-12-24T10:41:47;96786.16;;;11.25;100.00
6829;BME280;17930;48.592;8.868;2022-12-24T10:44:17;96786.41;;;11.29;100.00
6829;BME280;17930;48.592;8.868;2022-12-24T10:46:45;96784.84;;;11.56;100.00
6829;BME280;17930;48.592;8.868;2022-12-24T10:49:14;96779.03;;;11.64;100.00
6829;BME280;17930;48.592;8.868;2022-12-24T10:51:44;96787.25;;;11.76;100.00
6829;BME280;17930;48.592;8.868;2022-12-24T10:54:16;96794.00;;;11.59;100.00
6829;BME280;17930;48.592;8.868;2022-12-24T10:56:45;96793.72;;;11.60;100.00
6829;BME280;17930;48.592;8.868;2022-12-24T10:59:25;96776.25;;;11.56;100.00
6829;BME280;17930;48.592;8.868;2022-12-24T11:01:54;96789.22;;;11.66;100.00
6829;BME280;17930;48.592;8.868;2022-12-24T11:04:23;96789.59;;;11.77;100.00
6829;BME280;17930;48.592;8.868;2022-12-24T11:06:55;96787.81;;;11.73;100.00
6829;BME280;17930;48.592;8.868;2022-12-24T11:09:30;96794.16;;;11.90;100.00
6829;BME280;17930;48.592;8.868;2022-12-24T11:11:58;96793.19;;;12.05;100.00
6829;BME280;17930;48.592;8.868;2022-12-24T11:14:29;96793.66;;;12.12;100.00
6829;BME280;17930;48.592;8.868;2022-12-24T11:16:58;96793.59;;;12.17;100.00
6829;BME280;17930;48.592;8.868;2022-12-24T11:19:30;96804.50;;;12.24;100.00
6829;BME280;17930;48.592;8.868;2022-12-24T11:22:00;96803.84;;;12.31;100.00
6829;BME280;17930;48.592;8.868;2022-12-24T11:24:30;96792.22;;;12.42;100.00
6829;BME280;17930;48.592;8.868;2022-12-24T11:27:23;96792.22;;;12.79;100.00
6829;BME280;17930;48.592;8.868;2022-12-24T11:29:50;96790.50;;;13.25;100.00
6829;BME280;17930;48.592;8.868;2022-12-24T11:32:19;96792.16;;;13.21;100.00
6829;BME280;17930;48.592;8.868;2022-12-24T11:34:46;96801.91;;;13.33;100.00
6829;BME280;17930;48.592;8.868;2022-12-24T11:37:16;96793.69;;;13.22;100.00
6829;BME280;17930;48.592;8.868;2022-12-24T11:39:47;96790.47;;;13.11;100.00
6829;BME280;17930;48.592;8.868;2022-12-24T11:42:28;96798.13;;;13.39;100.00
6829;BME280;17930;48.592;8.868;2022-12-24T11:44:58;96795.84;;;13.78;100.00
6829;BME280;17930;48.592;8.868;2022-12-24T11:47:32;96805.78;;;13.94;100.00
6829;BME280;17930;48.592;8.868;2022-12-24T11:50:20;96802.44;;;13.62;100.00
6829;BME280;17930;48.592;8.868;2022-12-24T11:52:49;96791.59;;;13.82;100.00
6829;BME280;17930;48.592;8.868;2022-12-24T11:55:21;96793.34;;;14.00;100.00
6829;BME280;17930;48.592;8.868;2022-12-24T11:57:57;96785.91;;;14.07;100.00
6829;BME280;17930;48.592;8.868;2022-12-24T12:00:26;96777.13;;;14.25;100.00
6829;BME280;17930;48.592;8.868;2022-12-24T12:02:56;96780.34;;;14.70;100.00
6829;BME280;17930;48.592;8.868;2022-12-24T12:05:27;96786.84;;;15.30;100.00
6829;BME280;17930;48.592;8.868;2022-12-24T12:08:04;96778.44;;;15.71;100.00
6829;BME280;17930;48.592;8.868;2022-12-24T12:10:38;96773.56;;;16.42;100.00
6829;BME280;17930;48.592;8.868;2022-12-24T12:13:11;96784.75;;;16.47;100.00
6829;BME280;17930;48.592;8.868;2022-12-24T12:15:42;96779.38;;;15.45;100.00
6829;BME280;17930;48.592;8.868;2022-12-24T12:18:12;96776.16;;;15.04;100.00
6829;BME280;17930;48.592;8.868;2022-12-24T12:20:42;96774.91;;;15.45;100.00
6829;BME280;17930;48.592;8.868;2022-12-24T12:23:14;96768.78;;;16.52;100.00
6829;BME280;17930;48.592;8.868;2022-12-24T12:25:45;96771.13;;;17.30;100.00
6829;BME280;17930;48.592;8.868;2022-12-24T12:28:19;96775.72;;;17.58;100.00
6829;BME280;17930;48.592;8.868;2022-12-24T12:30:54;96770.69;;;17.82;100.00
6829;BME280;17930;48.592;8.868;2022-12-24T12:33:30;96780.44;;;16.13;100.00
6829;BME280;17930;48.592;8.868;2022-12-24T12:36:00;96785.81;;;16.46;100.00
6829;BME280;17930;48.592;8.868;2022-12-24T12:38:28;96791.59;;;15.49;100.00
6829;BME280;17930;48.592;8.868;2022-12-24T12:44:02;96798.16;;;15.60;100.00
6829;BME280;17930;48.592;8.868;2022-12-24T12:46:41;96798.63;;;14.97;100.00
6829;BME280;17930;48.592;8.868;2022-12-24T12:49:23;96790.31;;;14.82;100.00
6829;BME280;17930;48.592;8.868;2022-12-24T12:52:01;96795.03;;;14.71;100.00
6829;BME280;17930;48.592;8.868;2022-12-24T12:54:39;96795.78;;;14.23;100.00
6829;BME280;17930;48.592;8.868;2022-12-24T12:57:14;96797.31;;;13.84;100.00
6829;BME280;17930;48.592;8.868;2022-12-24T12:59:48;96795.41;;;13.44;100.00
6829;BME280;17930;48.592;8.868;2022-12-24T13:02:29;96801.22;;;13.41;100.00
6829;BME280;17930;48.592;8.868;2022-12-24T13:05:18;96800.63;;;13.31;100.00
6829;BME280;17930;48.592;8.868;2022-12-24T13:07:58;96796.06;;;13.05;100.00
6829;BME280;17930;48.592;8.868;2022-12-24T13:10:41;96789.97;;;12.91;100.00
6829;BME280;17930;48.592;8.868;2022-12-24T13:13:28;96789.59;;;12.84;100.00
6829;BME280;17930;48.592;8.868;2022-12-24T13:16:18;96791.59;;;12.69;100.00
6829;BME280;17930;48.592;8.868;2022-12-24T13:18:58;96794.50;;;12.49;100.00
6829;BME280;17930;48.592;8.868;2022-12-24T13:21:28;96796.13;;;12.45;100.00
6829;BME280;17930;48.592;8.868;2022-12-24T13:24:04;96792.72;;;12.63;100.00